Time;durP1;ratioP1;P1;durP2;ratioP2;P2;SDS_P1;SDS_P2;PMS_P1;PMS_P2;Temp;Humidity;BMP_temperature;BMP_pressure;BME280_temperature;BME280_humidity;BME280_pressure;Samples;Min_cycle;Max_cycle;Signal;HPM_P1;HPM_P2
2022/03/02 00:00:51;;;;;;;6.63;4.23;;;-3275.10;61.90;;;;;;6209601;28;20187;-60
2022/03/02 00:03:52;;;;;;;9.13;4.53;;;-3275.00;62.00;;;;;;6244114;28;20226;-60
2022/03/02 00:06:53;;;;;;;6.80;4.07;;;-3275.00;61.80;;;;;;6232921;28;20284;-60
2022/03/02 00:09:54;;;;;;;5.40;4.07;;;-3275.00;62.10;;;;;;6249748;28;20197;-61
2022/03/02 00:12:55;;;;;;;8.03;4.30;;;-3275.00;62.20;;;;;;6232582;28;20248;-61
2022/03/02 00:15:56;;;;;;;7.73;4.37;;;-3275.00;62.10;;;;;;6248861;28;20188;-61
2022/03/02 00:18:58;;;;;;;9.00;5.10;;;-3275.10;61.70;;;;;;6249180;28;20258;-61
2022/03/02 00:21:58;;;;;;;7.37;4.67;;;-3275.00;61.70;;;;;;6249274;28;20209;-61
2022/03/02 00:24:59;;;;;;;6.33;4.37;;;-3275.00;61.50;;;;;;6233218;28;20214;-61
2022/03/02 00:28:00;;;;;;;5.63;4.37;;;-3275.10;61.50;;;;;;6226625;28;20195;-61
2022/03/02 00:31:01;;;;;;;4.77;3.63;;;-3275.00;61.40;;;;;;6265531;28;20269;-61
2022/03/02 00:34:02;;;;;;;8.83;5.20;;;-3275.00;61.00;;;;;;6248530;28;20223;-61
2022/03/02 00:37:03;;;;;;;6.80;4.87;;;-3275.00;60.50;;;;;;6232355;28;20293;-61
2022/03/02 00:40:04;;;;;;;9.13;4.87;;;-3275.20;60.10;;;;;;6247917;28;20198;-61
2022/03/02 00:43:05;;;;;;;11.93;4.77;;;-3275.20;60.90;;;;;;6232399;28;20236;-61
2022/03/02 00:46:06;;;;;;;13.23;5.13;;;-3275.20;60.30;;;;;;6248072;28;20229;-61
2022/03/02 00:49:08;;;;;;;7.37;4.90;;;-3275.20;60.20;;;;;;6232272;28;20189;-59
2022/03/02 00:52:14;;;;;;;8.90;4.60;;;-3275.20;60.50;;;;;;6208342;28;20215;-61
2022/03/02 00:55:15;;;;;;;8.90;5.03;;;-3275.20;60.50;;;;;;6209201;28;20180;-62
2022/03/02 00:58:15;;;;;;;9.47;4.43;;;-3275.00;61.20;;;;;;6238768;28;20197;-61
2022/03/02 01:01:17;;;;;;;7.67;3.90;;;-3275.00;61.50;;;;;;6232052;28;20185;-63
2022/03/02 01:04:17;;;;;;;5.37;4.10;;;-3274.80;61.60;;;;;;6232510;28;20277;-63
2022/03/02 01:07:18;;;;;;;5.53;4.13;;;-3274.80;61.70;;;;;;6248394;28;20198;-63
2022/03/02 01:10:19;;;;;;;6.43;4.57;;;-3274.80;61.60;;;;;;6231764;28;20193;-63
2022/03/02 01:13:20;;;;;;;7.30;4.17;;;-3274.70;61.70;;;;;;6232073;28;20365;-63
2022/03/02 01:16:21;;;;;;;8.17;5.03;;;-3274.70;61.50;;;;;;6231934;28;20205;-63
2022/03/02 01:19:22;;;;;;;8.00;4.13;;;-3274.70;61.70;;;;;;6232246;28;20337;-63
2022/03/02 01:22:23;;;;;;;9.60;4.07;;;-3274.60;61.70;;;;;;6231324;28;20194;-63
2022/03/02 01:25:24;;;;;;;8.33;4.33;;;-3274.50;61.70;;;;;;6248069;28;20196;-63
2022/03/02 01:28:24;;;;;;;5.73;4.20;;;-3274.50;62.10;;;;;;6235696;28;20202;-63
2022/03/02 01:31:26;;;;;;;7.03;4.60;;;-3274.50;62.10;;;;;;6235372;28;20201;-63
2022/03/02 01:34:27;;;;;;;7.13;4.13;;;-3274.50;62.30;;;;;;6249614;28;20195;-63
2022/03/02 01:37:28;;;;;;;6.83;4.07;;;-3274.40;62.10;;;;;;6219280;28;20190;-63
2022/03/02 01:40:28;;;;;;;6.93;4.20;;;-3274.40;62.10;;;;;;6252113;28;20227;-63
2022/03/02 01:43:29;;;;;;;12.43;4.23;;;-3274.40;62.20;;;;;;6236275;28;20193;-63
2022/03/02 01:46:30;;;;;;;9.43;4.50;;;-3274.40;63.00;;;;;;6235859;28;20223;-63
2022/03/02 01:49:32;;;;;;;9.27;4.33;;;-3274.50;62.90;;;;;;6219752;28;20298;-61
2022/03/02 01:52:32;;;;;;;7.47;4.40;;;-3274.40;62.60;;;;;;6235748;28;20279;-61
2022/03/02 01:55:33;;;;;;;7.20;4.17;;;-3274.20;63.00;;;;;;6236057;28;20191;-61
2022/03/02 01:58:34;;;;;;;6.40;4.67;;;-3274.20;63.20;;;;;;6223570;28;20199;-60
2022/03/02 02:01:35;;;;;;;8.17;4.20;;;-3274.10;63.70;;;;;;6234964;28;20329;-60
2022/03/02 02:04:36;;;;;;;6.83;3.80;;;-3274.10;63.70;;;;;;6235897;28;20253;-60
2022/03/02 02:07:37;;;;;;;7.60;4.57;;;-3274.00;64.30;;;;;;6218869;28;20199;-60
2022/03/02 02:10:37;;;;;;;6.73;4.23;;;-3274.00;64.40;;;;;;6236040;28;20219;-60
2022/03/02 02:13:38;;;;;;;7.87;3.83;;;-3274.00;64.60;;;;;;6224656;28;20225;-60
2022/03/02 02:16:39;;;;;;;7.50;3.90;;;-3273.90;64.50;;;;;;6227787;28;20195;-61
2022/03/02 02:19:40;;;;;;;8.30;4.93;;;-3273.90;64.50;;;;;;6232640;28;20406;-61
2022/03/02 02:22:43;;;;;;;7.20;4.70;;;-3273.90;64.50;;;;;;6235316;28;20667;-61
2022/03/02 02:25:44;;;;;;;7.37;4.33;;;-3273.90;63.90;;;;;;6251610;28;20282;-61
2022/03/02 02:28:45;;;;;;;6.97;4.10;;;-3273.90;64.00;;;;;;6252195;28;20186;-61
2022/03/02 02:31:46;;;;;;;6.20;3.90;;;-3274.00;64.00;;;;;;6228004;28;20262;-60
2022/03/02 02:34:47;;;;;;;7.30;4.07;;;-3273.80;64.00;;;;;;6210598;28;20199;-60
2022/03/02 02:37:48;;;;;;;6.17;3.80;;;-3274.00;63.30;;;;;;6217489;28;20204;-60
2022/03/02 02:40:51;;;;;;;5.53;3.70;;;-3273.80;63.80;;;;;;6217602;28;20198;-59
2022/03/02 02:43:51;;;;;;;4.93;3.83;;;-3273.80;63.80;;;;;;6217881;28;20265;-59
2022/03/02 02:46:52;;;;;;;5.57;4.03;;;-3273.80;63.60;;;;;;6233393;28;20197;-59
2022/03/02 02:49:53;;;;;;;7.57;3.80;;;-3273.70;64.10;;;;;;6246423;28;20293;-59
2022/03/02 02:52:56;;;;;;;4.63;3.23;;;-3273.70;64.10;;;;;;6249080;28;20325;-59
2022/03/02 02:55:57;;;;;;;4.10;3.10;;;-3273.70;64.10;;;;;;6226874;28;20216;-60
2022/03/02 02:58:58;;;;;;;6.50;4.10;;;-3273.70;64.10;;;;;;6264526;28;20199;-59
2022/03/02 03:01:59;;;;;;;7.07;3.40;;;-3273.60;64.70;;;;;;6226115;28;20196;-59
2022/03/02 03:04:59;;;;;;;4.97;3.80;;;-3273.60;64.70;;;;;;6226775;28;20191;-58
2022/03/02 03:08:03;;;;;;;6.73;3.43;;;-3273.50;64.80;;;;;;6230967;28;20195;-58
2022/03/02 03:11:05;;;;;;;8.20;4.87;;;-3273.50;65.00;;;;;;6250736;28;20184;-59
2022/03/02 03:14:10;;;;;;;6.07;3.97;;;-3273.50;65.30;;;;;;6244403;28;20223;-60
2022/03/02 03:17:11;;;;;;;7.70;4.00;;;-3273.40;65.60;;;;;;6250383;28;20242;-59
2022/03/02 03:20:17;;;;;;;5.90;3.97;;;-3273.40;65.60;;;;;;6266852;28;20246;-59
2022/03/02 03:23:18;;;;;;;9.10;4.13;;;-3273.30;66.00;;;;;;6250270;28;20192;-59
2022/03/02 03:26:19;;;;;;;7.03;4.10;;;-3273.20;66.10;;;;;;6234215;28;20281;-59
2022/03/02 03:29:20;;;;;;;7.93;3.83;;;-3273.20;66.30;;;;;;6233805;28;20180;-60
2022/03/02 03:32:22;;;;;;;7.33;4.00;;;-3273.20;66.50;;;;;;6218599;28;20273;-60
2022/03/02 03:35:24;;;;;;;6.33;3.67;;;-3273.10;67.00;;;;;;6259151;28;20203;-60
2022/03/02 03:38:24;;;;;;;5.23;3.73;;;-3273.00;67.00;;;;;;6231627;28;20222;-60
2022/03/02 03:41:25;;;;;;;6.30;4.00;;;-3272.90;67.30;;;;;;6200882;28;20192;-60
2022/03/02 03:44:26;;;;;;;7.33;3.50;;;-3273.00;67.20;;;;;;6209480;28;20191;-60
2022/03/02 03:47:27;;;;;;;7.47;3.70;;;-3272.90;67.20;;;;;;6256621;28;20330;-60
2022/03/02 03:50:28;;;;;;;5.83;3.27;;;-3272.90;67.10;;;;;;6274939;28;20190;-60
2022/03/02 03:53:28;;;;;;;6.63;3.70;;;-3272.90;67.30;;;;;;6273807;28;20228;-61
2022/03/02 03:56:30;;;;;;;8.37;3.93;;;-3272.90;67.20;;;;;;6209059;28;20284;-61
2022/03/02 03:59:31;;;;;;;5.53;3.77;;;-3272.80;67.00;;;;;;6230019;28;20203;-63
2022/03/02 04:02:32;;;;;;;5.67;3.77;;;-3272.80;67.00;;;;;;6225368;28;20195;-63
2022/03/02 04:05:33;;;;;;;4.57;3.30;;;-3272.80;67.10;;;;;;6246459;28;20198;-61
2022/03/02 04:08:34;;;;;;;6.20;3.60;;;-3272.80;67.50;;;;;;6233146;28;20253;-60
2022/03/02 04:11:34;;;;;;;5.73;3.63;;;-3273.00;66.60;;;;;;6232005;28;20199;-60
2022/03/02 04:14:35;;;;;;;6.83;3.60;;;-3273.00;66.70;;;;;;6234957;28;20196;-60
2022/03/02 04:17:36;;;;;;;5.97;3.07;;;-3272.90;66.90;;;;;;6231945;28;20202;-60
2022/03/02 04:20:38;;;;;;;4.20;3.30;;;-3272.80;67.00;;;;;;6245924;28;20239;-60
2022/03/02 04:23:39;;;;;;;7.60;3.60;;;-3272.80;67.30;;;;;;6253946;28;20321;-60
2022/03/02 04:26:39;;;;;;;5.10;3.33;;;-3272.80;67.40;;;;;;6231705;28;20254;-60
2022/03/02 04:29:41;;;;;;;6.03;3.67;;;-3272.80;67.60;;;;;;6232688;28;20204;-60
2022/03/02 04:32:42;;;;;;;4.77;3.83;;;-3272.70;67.90;;;;;;6249145;28;20215;-60
2022/03/02 04:35:43;;;;;;;5.60;3.63;;;-3272.70;67.90;;;;;;6235296;28;20194;-60
2022/03/02 04:38:44;;;;;;;7.07;4.00;;;-3272.70;67.80;;;;;;6246548;28;20208;-60
2022/03/02 04:41:45;;;;;;;7.70;4.00;;;-3272.60;67.50;;;;;;6232365;28;20216;-60
2022/03/02 04:44:45;;;;;;;3.73;2.90;;;-3272.70;67.70;;;;;;6233360;28;20230;-60
2022/03/02 04:47:46;;;;;;;7.13;4.40;;;-3272.60;67.80;;;;;;6267453;28;20201;-62
2022/03/02 04:50:47;;;;;;;5.67;3.93;;;-3272.50;68.20;;;;;;6230653;28;20195;-61
2022/03/02 04:53:50;;;;;;;7.47;4.20;;;-3272.70;68.10;;;;;;6214366;28;20225;-61
2022/03/02 04:56:50;;;;;;;9.70;4.40;;;-3272.70;67.90;;;;;;6252847;28;20282;-61
2022/03/02 04:59:51;;;;;;;9.43;4.90;;;-3272.70;67.90;;;;;;6225905;28;20192;-60
2022/03/02 05:02:53;;;;;;;10.27;3.90;;;-3272.70;67.70;;;;;;6266297;28;20210;-61
2022/03/02 05:05:54;;;;;;;7.90;4.63;;;-3272.70;67.70;;;;;;6260767;28;20773;-60
2022/03/02 05:08:54;;;;;;;5.23;3.97;;;-3272.70;67.80;;;;;;6242585;28;20188;-60
2022/03/02 05:11:55;;;;;;;6.97;4.57;;;-3272.60;67.70;;;;;;6229135;28;20227;-60
2022/03/02 05:14:56;;;;;;;6.07;4.03;;;-3272.60;67.60;;;;;;6231342;28;20222;-60
2022/03/02 05:17:58;;;;;;;10.73;4.00;;;-3272.60;67.60;;;;;;6228824;28;20184;-60
2022/03/02 05:20:59;;;;;;;6.80;4.03;;;-3272.60;67.60;;;;;;6230840;28;20306;-60
2022/03/02 05:23:59;;;;;;;7.43;4.00;;;-3272.60;67.60;;;;;;6230605;28;20191;-60
2022/03/02 05:27:00;;;;;;;6.10;3.47;;;-3272.50;68.00;;;;;;6226366;28;20202;-61
2022/03/02 05:30:02;;;;;;;7.23;3.97;;;-3272.60;68.00;;;;;;6223509;28;20256;-60
2022/03/02 05:33:03;;;;;;;8.23;3.67;;;-3272.50;68.00;;;;;;6246991;28;20308;-60
2022/03/02 05:36:04;;;;;;;7.87;3.50;;;-3272.50;67.80;;;;;;6246733;28;20194;-60
2022/03/02 05:39:05;;;;;;;6.13;3.60;;;-3272.50;67.70;;;;;;6250580;28;20187;-60
2022/03/02 05:42:06;;;;;;;8.20;3.67;;;-3272.50;67.50;;;;;;6221732;28;20226;-60
2022/03/02 05:45:09;;;;;;;5.87;3.43;;;-3272.50;67.50;;;;;;6231760;28;20250;-64
2022/03/02 05:48:09;;;;;;;6.00;3.90;;;-3272.50;67.60;;;;;;6248097;28;20200;-63
2022/03/02 05:51:11;;;;;;;5.63;3.50;;;-3272.50;67.60;;;;;;6248199;28;20208;-61
2022/03/02 05:54:12;;;;;;;5.97;3.27;;;-3272.50;68.30;;;;;;6232364;28;20272;-60
2022/03/02 05:57:13;;;;;;;5.30;3.50;;;-3272.40;67.80;;;;;;6251956;28;20286;-61
2022/03/02 06:00:14;;;;;;;5.77;3.50;;;-3272.40;66.90;;;;;;6247979;28;20220;-60
2022/03/02 06:03:15;;;;;;;7.23;3.73;;;-3272.50;66.90;;;;;;6251456;28;20324;-60
2022/03/02 06:06:17;;;;;;;5.67;4.10;;;-3272.60;67.30;;;;;;6264351;28;20201;-60
2022/03/02 06:09:18;;;;;;;4.50;3.33;;;-3272.60;67.50;;;;;;6227901;28;20213;-60
2022/03/02 06:12:19;;;;;;;6.63;3.60;;;-3272.70;67.70;;;;;;6250370;28;20218;-61
2022/03/02 06:15:20;;;;;;;7.60;3.83;;;-3272.70;67.70;;;;;;6241461;28;20201;-60
2022/03/02 06:18:21;;;;;;;8.03;3.93;;;-3272.80;67.30;;;;;;6228156;28;20189;-60
2022/03/02 06:21:28;;;;;;;8.23;4.03;;;-3272.80;67.20;;;;;;6231871;28;20237;-60
2022/03/02 06:24:30;;;;;;;4.70;3.53;;;-3272.70;67.40;;;;;;6238453;28;20192;-60
2022/03/02 06:27:30;;;;;;;6.77;3.43;;;-3272.80;67.60;;;;;;6236490;28;20201;-60
2022/03/02 06:30:31;;;;;;;5.67;3.40;;;-3272.80;67.20;;;;;;6225112;28;20223;-60
2022/03/02 06:33:32;;;;;;;6.93;3.60;;;-3273.00;67.00;;;;;;6225554;28;20228;-61
2022/03/02 06:36:33;;;;;;;5.13;3.50;;;-3273.00;66.80;;;;;;6236399;28;20203;-60
2022/03/02 06:39:34;;;;;;;5.70;3.43;;;-3273.10;66.70;;;;;;6242725;28;20197;-60
2022/03/02 06:43:02;;;;;;;7.50;4.17;;;-3273.20;66.10;;;;;;6216597;28;20207;-60
2022/03/02 06:46:11;;;;;;;6.47;3.33;;;-3273.20;65.90;;;;;;6249071;28;20195;-60
2022/03/02 06:49:33;;;;;;;8.37;3.47;;;-3273.50;65.50;;;;;;6249665;28;20199;-60
2022/03/02 06:52:40;;;;;;;4.97;3.57;;;-3273.50;65.50;;;;;;6247362;28;20343;-60
2022/03/02 06:55:43;;;;;;;5.70;3.77;;;-3273.50;65.40;;;;;;6239129;28;20250;-60
2022/03/02 06:58:55;;;;;;;7.30;4.00;;;-3273.50;65.00;;;;;;6248803;28;20203;-60
2022/03/02 07:02:02;;;;;;;5.00;3.40;;;-3273.50;64.30;;;;;;6243195;28;20204;-60
2022/03/02 07:05:05;;;;;;;6.60;3.50;;;-3273.60;64.00;;;;;;6233500;28;20205;-60
2022/03/02 07:08:08;;;;;;;7.27;3.83;;;-3273.70;63.60;;;;;;6241098;28;20237;-60
2022/03/02 07:11:09;;;;;;;8.77;4.60;;;-3273.70;63.30;;;;;;6225150;28;20188;-60
2022/03/02 07:14:13;;;;;;;6.60;3.97;;;-3273.90;62.90;;;;;;6257584;28;20219;-60
2022/03/02 07:17:14;;;;;;;9.00;4.80;;;-3274.00;62.50;;;;;;6228340;28;20271;-60
2022/03/02 07:20:15;;;;;;;6.57;3.90;;;-3274.10;62.00;;;;;;6232503;28;20243;-60
2022/03/02 07:23:18;;;;;;;7.13;3.90;;;-3274.20;61.10;;;;;;6231795;28;20222;-60
2022/03/02 07:26:19;;;;;;;5.60;3.27;;;-3274.30;60.50;;;;;;6248519;28;20275;-60
2022/03/02 07:29:22;;;;;;;6.27;3.30;;;-3274.50;60.10;;;;;;6261627;28;20657;-60
2022/03/02 07:32:30;;;;;;;4.53;3.00;;;-3274.60;59.60;;;;;;6273437;28;20217;-60
2022/03/02 07:35:34;;;;;;;6.20;3.03;;;-3274.70;59.70;;;;;;6234088;28;20199;-60
2022/03/02 07:38:36;;;;;;;4.57;3.30;;;-3274.80;59.40;;;;;;6264522;28;20193;-60
2022/03/02 07:41:37;;;;;;;6.87;3.27;;;-3274.90;58.90;;;;;;6216274;28;20242;-60
2022/03/02 07:44:38;;;;;;;6.50;3.50;;;-3275.00;58.90;;;;;;6215165;28;20650;-60
2022/03/02 07:47:39;;;;;;;4.80;2.97;;;-3275.20;57.60;;;;;;6248108;28;20253;-60
2022/03/02 07:50:40;;;;;;;7.10;4.07;;;-3275.30;55.90;;;;;;6232156;28;20282;-60
2022/03/02 07:53:47;;;;;;;7.13;3.80;;;-3275.40;55.30;;;;;;6245911;28;20276;-60
2022/03/02 07:56:50;;;;;;;5.90;4.00;;;-3275.50;54.90;;;;;;6253075;28;20298;-60
2022/03/02 07:59:53;;;;;;;6.07;3.40;;;-3275.60;55.10;;;;;;6244756;28;20207;-60
2022/03/02 08:02:57;;;;;;;8.43;3.40;;;-3275.70;54.60;;;;;;6236836;28;20210;-60
2022/03/02 08:05:59;;;;;;;7.10;3.50;;;-3275.90;52.80;;;;;;6244767;28;20203;-60
2022/03/02 08:09:02;;;;;;;6.07;3.10;;;-3276.00;52.80;;;;;;6247954;28;20193;-60
2022/03/02 08:12:06;;;;;;;6.37;3.33;;;-3276.00;53.00;;;;;;6248118;28;20213;-60
2022/03/02 08:15:07;;;;;;;5.83;3.70;;;-3276.20;52.90;;;;;;6230901;28;20194;-60
2022/03/02 08:18:08;;;;;;;5.43;3.30;;;-3276.20;52.20;;;;;;6250459;28;20183;-60
2022/03/02 08:21:13;;;;;;;6.20;3.57;;;-3276.40;51.90;;;;;;6244749;28;20250;-60
2022/03/02 08:24:19;;;;;;;7.97;3.70;;;-3276.50;51.20;;;;;;6209076;28;20199;-60
2022/03/02 08:27:21;;;;;;;5.53;3.20;;;-3276.60;50.90;;;;;;6246814;28;20281;-60
2022/03/02 08:30:23;;;;;;;5.77;3.60;;;-3276.70;50.50;;;;;;6247438;28;20201;-60
2022/03/02 08:33:29;;;;;;;7.73;3.17;;;0.00;50.50;;;;;;6230945;28;20222;-60
2022/03/02 08:36:33;;;;;;;4.60;3.13;;;0.20;49.30;;;;;;6246120;28;20183;-60
2022/03/02 08:39:34;;;;;;;6.53;3.23;;;0.30;48.70;;;;;;6246280;28;20198;-60
2022/03/02 08:42:35;;;;;;;5.20;3.33;;;0.60;47.20;;;;;;6233937;28;20197;-60
2022/03/02 08:45:36;;;;;;;3.87;3.17;;;0.70;46.80;;;;;;6239187;28;20294;-60
2022/03/02 08:48:37;;;;;;;5.50;3.47;;;0.80;46.70;;;;;;6222664;28;20192;-60
2022/03/02 08:51:39;;;;;;;6.10;3.60;;;1.00;46.00;;;;;;6252151;28;20198;-60
2022/03/02 08:54:47;;;;;;;5.47;3.70;;;1.00;45.90;;;;;;6246781;28;20563;-60
2022/03/02 08:57:50;;;;;;;5.67;3.40;;;1.30;45.10;;;;;;6247022;28;20194;-60
2022/03/02 09:00:52;;;;;;;6.17;3.70;;;1.30;45.50;;;;;;6229979;28;20200;-60
2022/03/02 09:03:55;;;;;;;6.20;3.63;;;1.50;44.70;;;;;;6238512;28;20200;-60
2022/03/02 09:06:59;;;;;;;6.20;3.70;;;1.70;44.40;;;;;;6255022;28;20182;-60
2022/03/02 09:10:01;;;;;;;7.67;3.50;;;1.90;43.80;;;;;;6229148;28;20229;-60
2022/03/02 09:13:02;;;;;;;5.80;3.10;;;1.90;43.80;;;;;;6230608;28;20223;-60
2022/03/02 09:16:07;;;;;;;5.90;3.57;;;2.10;43.80;;;;;;6246438;28;20249;-61
2022/03/02 09:19:08;;;;;;;4.77;4.00;;;2.20;43.90;;;;;;6246332;28;20246;-60
2022/03/02 09:22:08;;;;;;;6.67;3.90;;;2.30;43.60;;;;;;6246245;28;20661;-60
2022/03/02 09:25:10;;;;;;;6.87;4.80;;;2.30;43.60;;;;;;6245643;28;20186;-60
2022/03/02 09:28:11;;;;;;;7.43;4.83;;;2.60;42.20;;;;;;6246968;28;20264;-60
2022/03/02 09:31:15;;;;;;;7.87;4.40;;;2.70;42.30;;;;;;6254783;28;20202;-60
2022/03/02 09:34:21;;;;;;;5.10;4.10;;;2.90;41.50;;;;;;6254916;28;20332;-60
2022/03/02 09:37:24;;;;;;;7.10;4.50;;;3.30;40.10;;;;;;6253727;28;20258;-60
2022/03/02 09:40:30;;;;;;;8.47;4.27;;;3.50;39.70;;;;;;6231154;28;20285;-60
2022/03/02 09:43:34;;;;;;;5.27;3.90;;;3.40;39.70;;;;;;6246614;28;20217;-60
2022/03/02 09:46:38;;;;;;;9.57;4.83;;;3.40;40.50;;;;;;6236143;28;20191;-60
2022/03/02 09:49:45;;;;;;;9.93;5.40;;;3.60;39.60;;;;;;6259241;28;20201;-60
2022/03/02 09:52:48;;;;;;;5.63;3.23;;;3.80;38.60;;;;;;6231459;28;20272;-60
2022/03/02 09:55:49;;;;;;;8.23;4.17;;;3.90;36.30;;;;;;6250846;28;20274;-60
2022/03/02 09:58:52;;;;;;;6.90;4.47;;;4.00;37.80;;;;;;6232746;28;20225;-60
2022/03/02 10:01:56;;;;;;;6.30;4.03;;;4.00;36.30;;;;;;6249901;28;20198;-60
2022/03/02 10:05:03;;;;;;;8.93;4.17;;;4.10;36.50;;;;;;6248914;28;20194;-60
2022/03/02 10:08:07;;;;;;;8.00;4.20;;;4.30;36.30;;;;;;6251078;28;20302;-60
2022/03/02 10:11:08;;;;;;;7.77;4.70;;;4.30;36.40;;;;;;6251059;28;20205;-60
2022/03/02 10:14:09;;;;;;;7.63;4.23;;;4.30;36.70;;;;;;6242127;28;20223;-60
2022/03/02 10:17:20;;;;;;;6.73;4.00;;;4.30;36.30;;;;;;6242210;28;20190;-60
2022/03/02 10:20:24;;;;;;;6.07;4.53;;;4.40;36.40;;;;;;6250505;28;20245;-60
2022/03/02 10:23:37;;;;;;;5.37;3.60;;;4.60;34.70;;;;;;6250423;28;20202;-60
2022/03/02 10:26:50;;;;;;;5.83;4.57;;;4.50;35.80;;;;;;6237684;28;20210;-60
2022/03/02 10:30:11;;;;;;;5.03;3.90;;;4.60;37.20;;;;;;6225650;28;20183;-60
2022/03/02 10:33:17;;;;;;;6.17;4.57;;;4.90;35.80;;;;;;6241083;28;20215;-60
2022/03/02 10:36:20;;;;;;;5.77;4.33;;;5.10;36.40;;;;;;6257137;28;20273;-60
2022/03/02 10:39:51;;;;;;;6.17;4.30;;;5.30;35.20;;;;;;6244376;28;20217;-60
2022/03/02 10:42:59;;;;;;;6.07;4.57;;;5.30;34.00;;;;;;6209168;28;20206;-60
2022/03/02 10:46:02;;;;;;;5.30;4.10;;;5.40;33.80;;;;;;6240444;28;20204;-61
2022/03/02 10:49:11;;;;;;;7.87;3.53;;;5.60;35.20;;;;;;6222179;28;20229;-60
2022/03/02 10:52:20;;;;;;;8.40;4.33;;;5.80;33.20;;;;;;6226241;28;20199;-59
2022/03/02 10:55:22;;;;;;;6.93;5.20;;;5.70;33.90;;;;;;6249864;28;20190;-60
2022/03/02 10:58:28;;;;;;;9.00;4.20;;;5.90;35.10;;;;;;6263811;28;20205;-60
2022/03/02 11:01:29;;;;;;;4.60;3.60;;;6.10;33.50;;;;;;6234126;28;20192;-61
2022/03/02 11:04:34;;;;;;;4.90;3.90;;;6.00;34.70;;;;;;6249093;28;20202;-60
2022/03/02 11:07:35;;;;;;;4.40;3.47;;;6.00;34.20;;;;;;6249587;28;20277;-60
2022/03/02 11:10:40;;;;;;;6.17;4.50;;;6.10;34.40;;;;;;6258960;28;20189;-60
2022/03/02 11:13:44;;;;;;;8.00;4.70;;;6.30;33.10;;;;;;6291365;28;20270;-61
2022/03/02 11:16:46;;;;;;;10.80;4.93;;;6.30;33.00;;;;;;6259411;28;20182;-61
2022/03/02 11:19:47;;;;;;;8.97;5.30;;;6.50;32.40;;;;;;6237581;28;20227;-61
2022/03/02 11:23:06;;;;;;;5.90;4.87;;;6.70;32.90;;;;;;6234266;28;20199;-61
2022/03/02 11:26:16;;;;;;;7.87;4.63;;;6.80;31.40;;;;;;6234301;28;20233;-60
2022/03/02 11:29:18;;;;;;;7.10;4.63;;;6.80;30.80;;;;;;6250138;28;20194;-62
2022/03/02 11:32:19;;;;;;;9.60;5.47;;;6.90;32.20;;;;;;6250113;28;20202;-61
2022/03/02 11:35:21;;;;;;;7.13;5.10;;;7.30;30.90;;;;;;6250418;28;20187;-60
2022/03/02 11:38:22;;;;;;;10.30;5.83;;;7.60;31.00;;;;;;6255888;28;20191;-60
2022/03/02 11:41:36;;;;;;;7.20;4.63;;;7.60;31.60;;;;;;6224985;28;20199;-60
2022/03/02 11:44:41;;;;;;;7.23;5.97;;;7.60;31.80;;;;;;6225200;28;20187;-60
2022/03/02 11:47:45;;;;;;;10.40;6.13;;;8.00;32.00;;;;;;6228009;28;20194;-60
2022/03/02 11:51:14;;;;;;;5.90;4.63;;;8.20;30.90;;;;;;6233944;28;20198;-61
2022/03/02 11:54:15;;;;;;;8.87;5.70;;;8.30;30.70;;;;;;6248771;28;20229;-60
2022/03/02 11:57:19;;;;;;;7.20;5.37;;;8.50;29.70;;;;;;6247353;28;20186;-60
2022/03/02 12:00:21;;;;;;;11.87;6.07;;;8.80;29.90;;;;;;6265450;28;20191;-61
2022/03/02 12:03:22;;;;;;;7.43;5.40;;;9.10;28.80;;;;;;6245982;28;20358;-61
2022/03/02 12:06:23;;;;;;;8.90;5.87;;;9.20;28.30;;;;;;6212701;28;20198;-60
2022/03/02 12:09:32;;;;;;;9.47;5.73;;;9.40;28.70;;;;;;6244346;28;20202;-61
2022/03/02 12:12:40;;;;;;;6.00;5.07;;;9.80;28.00;;;;;;6249063;28;20210;-60
2022/03/02 12:15:44;;;;;;;8.63;6.03;;;9.90;27.30;;;;;;6249001;28;20210;-61
2022/03/02 12:18:44;;;;;;;7.20;5.50;;;10.10;27.70;;;;;;6249330;28;20201;-61
2022/03/02 12:21:45;;;;;;;9.30;5.93;;;10.50;25.80;;;;;;6248941;28;20209;-61
2022/03/02 12:24:48;;;;;;;6.40;5.53;;;10.70;27.00;;;;;;6278278;28;20221;-60
2022/03/02 12:28:00;;;;;;;8.40;5.80;;;10.80;26.60;;;;;;6274158;28;20308;-59
2022/03/02 12:31:11;;;;;;;6.17;5.40;;;11.20;26.30;;;;;;6251495;28;20198;-58
2022/03/02 12:34:16;;;;;;;7.77;6.10;;;11.60;25.60;;;;;;6248874;28;20274;-58
2022/03/02 12:37:19;;;;;;;8.13;6.13;;;12.00;24.80;;;;;;6232062;28;20191;-55
2022/03/02 12:40:20;;;;;;;8.13;6.33;;;12.60;24.60;;;;;;6248159;28;20183;-57
2022/03/02 12:43:24;;;;;;;8.13;6.20;;;14.40;21.20;;;;;;6250034;28;20291;-55
2022/03/02 12:46:27;;;;;;;6.77;5.20;;;16.70;19.50;;;;;;6250368;28;20249;-58
2022/03/02 12:49:29;;;;;;;7.43;5.17;;;19.00;17.90;;;;;;6249115;28;20236;-58
2022/03/02 12:52:31;;;;;;;8.23;6.00;;;20.50;15.90;;;;;;6265060;28;20221;-58
2022/03/02 12:55:32;;;;;;;7.63;5.57;;;22.70;15.10;;;;;;6248440;28;20238;-58
2022/03/02 12:58:32;;;;;;;6.87;4.87;;;23.60;13.90;;;;;;6248289;28;20198;-58
2022/03/02 13:01:34;;;;;;;7.17;5.27;;;24.80;12.50;;;;;;6232138;28;20300;-58
2022/03/02 13:05:00;;;;;;;7.73;5.20;;;26.40;11.80;;;;;;6232089;28;20203;-59
2022/03/02 13:08:07;;;;;;;7.63;5.40;;;25.60;12.70;;;;;;6248877;28;20197;-59
2022/03/02 13:11:25;;;;;;;6.70;5.57;;;27.50;11.10;;;;;;6248195;28;20202;-59
2022/03/02 13:14:36;;;;;;;5.33;4.83;;;26.90;11.40;;;;;;6248415;28;20264;-58
2022/03/02 13:17:37;;;;;;;5.97;4.93;;;27.10;10.70;;;;;;6248705;28;20179;-58
2022/03/02 13:20:41;;;;;;;7.07;4.83;;;26.90;11.70;;;;;;6247741;28;20305;-58
2022/03/02 13:24:04;;;;;;;6.30;4.70;;;26.20;12.20;;;;;;6250903;28;20183;-59
2022/03/02 13:27:10;;;;;;;7.73;4.93;;;25.50;12.20;;;;;;6233042;28;20199;-59
2022/03/02 13:30:12;;;;;;;8.80;4.93;;;26.40;11.80;;;;;;6213442;28;20218;-59
2022/03/02 13:33:13;;;;;;;7.77;5.43;;;26.70;11.20;;;;;;6228753;28;20242;-59
2022/03/02 13:36:39;;;;;;;4.90;4.17;;;25.90;11.30;;;;;;6239992;28;20209;-59
2022/03/02 13:39:46;;;;;;;5.90;4.60;;;26.50;11.60;;;;;;6248719;28;20194;-59
2022/03/02 13:42:50;;;;;;;7.17;4.43;;;26.90;11.60;;;;;;6236029;28;20248;-60
2022/03/02 13:46:12;;;;;;;5.57;4.90;;;28.20;9.80;;;;;;6252573;28;20254;-59
2022/03/02 13:49:12;;;;;;;5.30;4.80;;;28.40;10.40;;;;;;6252468;28;20256;-59
2022/03/02 13:52:28;;;;;;;5.53;4.47;;;28.90;10.10;;;;;;6235550;28;20263;-59
2022/03/02 13:55:30;;;;;;;4.43;4.00;;;29.30;9.30;;;;;;6227758;28;20183;-59
2022/03/02 13:58:33;;;;;;;4.87;4.37;;;27.90;10.20;;;;;;6238123;28;20198;-59
2022/03/02 14:01:33;;;;;;;7.10;4.53;;;29.70;9.20;;;;;;6231168;28;20241;-59
2022/03/02 14:04:34;;;;;;;7.87;4.57;;;29.30;9.10;;;;;;6260316;28;20205;-59
2022/03/02 14:07:38;;;;;;;4.83;3.93;;;30.20;9.50;;;;;;6243845;28;20195;-59
2022/03/02 14:10:41;;;;;;;4.73;3.43;;;29.60;9.50;;;;;;6247947;28;20215;-58
2022/03/02 14:13:44;;;;;;;5.60;4.47;;;29.30;9.10;;;;;;6211326;28;20211;-59
2022/03/02 14:16:53;;;;;;;6.13;4.27;;;29.80;9.20;;;;;;6249804;28;20195;-59
2022/03/02 14:19:54;;;;;;;4.47;4.07;;;29.70;9.20;;;;;;6252224;28;20234;-59
2022/03/02 14:23:04;;;;;;;5.97;3.90;;;30.40;9.50;;;;;;6251976;28;20233;-59
2022/03/02 14:26:08;;;;;;;6.27;3.90;;;31.50;8.90;;;;;;6234983;28;20348;-59
2022/03/02 14:29:13;;;;;;;7.70;4.27;;;30.60;9.20;;;;;;6268312;28;20187;-57
2022/03/02 14:32:14;;;;;;;4.57;3.70;;;29.40;9.70;;;;;;6252129;28;20211;-58
2022/03/02 14:35:25;;;;;;;6.73;3.80;;;30.00;9.70;;;;;;6223817;28;20256;-61
2022/03/02 14:38:30;;;;;;;4.70;3.70;;;29.40;9.60;;;;;;6244456;28;20217;-58
2022/03/02 14:41:31;;;;;;;6.23;4.17;;;28.70;10.60;;;;;;6239745;28;20191;-58
2022/03/02 14:44:32;;;;;;;5.60;3.70;;;29.20;9.80;;;;;;6231357;28;20266;-58
2022/03/02 14:47:33;;;;;;;4.23;3.60;;;30.20;9.10;;;;;;6243706;28;20210;-58
2022/03/02 14:50:47;;;;;;;4.20;3.80;;;29.00;9.40;;;;;;6226771;28;20226;-58
2022/03/02 14:53:48;;;;;;;4.00;3.60;;;28.30;9.90;;;;;;6226560;28;20223;-58
2022/03/02 14:56:50;;;;;;;5.77;3.90;;;27.70;10.60;;;;;;6216787;28;20193;-58
2022/03/02 14:59:52;;;;;;;4.43;4.03;;;27.60;10.50;;;;;;6231508;28;20195;-58
2022/03/02 15:02:54;;;;;;;3.83;3.47;;;28.40;10.20;;;;;;6233879;28;20190;-58
2022/03/02 15:05:58;;;;;;;4.93;3.60;;;28.90;9.40;;;;;;6245918;28;20194;-58
2022/03/02 15:09:02;;;;;;;4.10;3.47;;;27.90;10.40;;;;;;6250896;28;20187;-58
2022/03/02 15:12:04;;;;;;;4.20;3.80;;;28.30;10.00;;;;;;6251851;28;20179;-57
2022/03/02 15:15:13;;;;;;;4.33;3.90;;;27.80;10.20;;;;;;6234717;28;20190;-57
2022/03/02 15:18:15;;;;;;;3.70;3.37;;;26.80;11.00;;;;;;6250508;28;20175;-58
2022/03/02 15:21:16;;;;;;;3.60;3.13;;;27.30;11.10;;;;;;6234692;28;20235;-58
2022/03/02 15:24:17;;;;;;;3.93;3.50;;;28.00;10.90;;;;;;6217962;28;20270;-58
2022/03/02 15:27:19;;;;;;;5.13;4.20;;;28.90;10.20;;;;;;6209572;28;20190;-58
2022/03/02 15:30:20;;;;;;;5.07;3.97;;;28.00;10.10;;;;;;6227720;28;20179;-58
2022/03/02 15:33:20;;;;;;;4.67;4.20;;;27.00;11.30;;;;;;6233756;28;20236;-58
2022/03/02 15:36:21;;;;;;;4.37;3.97;;;25.30;12.30;;;;;;6250059;28;20195;-57